sensor_id;sensor_type;location;lat;lon;timestamp;P1;durP1;ratioP1;P2;durP2;ratioP2
69220;SDS011;56331;51.992;20.910;2022-10-31T00:00:12;11.10;;;8.10;;
69220;SDS011;56331;51.992;20.910;2022-10-31T00:02:41;9.80;;;7.20;;
69220;SDS011;56331;51.992;20.910;2022-10-31T00:05:08;9.73;;;7.25;;
69220;SDS011;56331;51.992;20.910;2022-10-31T00:07:35;9.28;;;7.28;;
69220;SDS011;56331;51.992;20.910;2022-10-31T00:10:01;9.88;;;7.50;;
69220;SDS011;56331;51.992;20.910;2022-10-31T00:12:28;8.68;;;6.78;;
69220;SDS011;56331;51.992;20.910;2022-10-31T00:14:54;8.75;;;7.12;;
69220;SDS011;56331;51.992;20.910;2022-10-31T00:17:20;10.63;;;7.28;;
69220;SDS011;56331;51.992;20.910;2022-10-31T00:19:47;10.32;;;7.03;;
69220;SDS011;56331;51.992;20.910;2022-10-31T00:22:13;11.20;;;7.30;;
69220;SDS011;56331;51.992;20.910;2022-10-31T00:24:40;11.25;;;7.58;;
69220;SDS011;56331;51.992;20.910;2022-10-31T00:27:06;10.18;;;7.55;;
69220;SDS011;56331;51.992;20.910;2022-10-31T00:29:33;11.43;;;7.20;;
69220;SDS011;56331;51.992;20.910;2022-10-31T00:31:59;11.63;;;7.85;;
69220;SDS011;56331;51.992;20.910;2022-10-31T00:34:26;11.38;;;7.70;;
69220;SDS011;56331;51.992;20.910;2022-10-31T00:36:52;9.80;;;6.72;;
69220;SDS011;56331;51.992;20.910;2022-10-31T00:39:18;10.00;;;7.00;;
69220;SDS011;56331;51.992;20.910;2022-10-31T00:41:45;13.30;;;8.53;;
69220;SDS011;56331;51.992;20.910;2022-10-31T00:44:11;9.43;;;6.90;;
69220;SDS011;56331;51.992;20.910;2022-10-31T00:46:38;10.03;;;7.12;;
69220;SDS011;56331;51.992;20.910;2022-10-31T00:49:04;11.15;;;7.55;;
69220;SDS011;56331;51.992;20.910;2022-10-31T00:51:30;11.28;;;7.97;;
69220;SDS011;56331;51.992;20.910;2022-10-31T00:53:57;9.95;;;7.37;;
69220;SDS011;56331;51.992;20.910;2022-10-31T00:56:23;10.35;;;7.62;;
69220;SDS011;56331;51.992;20.910;2022-10-31T00:58:49;10.98;;;7.58;;
69220;SDS011;56331;51.992;20.910;2022-10-31T01:01:16;9.53;;;7.15;;
69220;SDS011;56331;51.992;20.910;2022-10-31T01:03:42;11.65;;;8.00;;
69220;SDS011;56331;51.992;20.910;2022-10-31T01:06:10;9.75;;;7.50;;
69220;SDS011;56331;51.992;20.910;2022-10-31T01:08:38;11.22;;;7.97;;
69220;SDS011;56331;51.992;20.910;2022-10-31T01:13:38;11.12;;;8.13;;
69220;SDS011;56331;51.992;20.910;2022-10-31T01:16:06;11.18;;;7.42;;
69220;SDS011;56331;51.992;20.910;2022-10-31T01:18:34;9.95;;;8.05;;
69220;SDS011;56331;51.992;20.910;2022-10-31T01:21:05;11.70;;;8.38;;
69220;SDS011;56331;51.992;20.910;2022-10-31T01:23:30;11.30;;;8.13;;
69220;SDS011;56331;51.992;20.910;2022-10-31T01:26:02;11.63;;;7.70;;
69220;SDS011;56331;51.992;20.910;2022-10-31T01:28:36;12.50;;;7.70;;
69220;SDS011;56331;51.992;20.910;2022-10-31T01:31:05;11.78;;;8.23;;
69220;SDS011;56331;51.992;20.910;2022-10-31T01:33:34;10.80;;;8.13;;
69220;SDS011;56331;51.992;20.910;2022-10-31T01:36:10;10.48;;;7.70;;
69220;SDS011;56331;51.992;20.910;2022-10-31T01:38:40;12.10;;;8.15;;
69220;SDS011;56331;51.992;20.910;2022-10-31T01:41:07;12.55;;;7.58;;
69220;SDS011;56331;51.992;20.910;2022-10-31T01:46:34;11.45;;;8.28;;
69220;SDS011;56331;51.992;20.910;2022-10-31T01:51:58;11.95;;;8.33;;
69220;SDS011;56331;51.992;20.910;2022-10-31T01:54:29;11.85;;;8.25;;
69220;SDS011;56331;51.992;20.910;2022-10-31T01:56:58;10.40;;;7.62;;
69220;SDS011;56331;51.992;20.910;2022-10-31T01:59:27;10.70;;;8.18;;
69220;SDS011;56331;51.992;20.910;2022-10-31T02:01:56;10.93;;;8.45;;
69220;SDS011;56331;51.992;20.910;2022-10-31T02:04:23;11.35;;;8.73;;
69220;SDS011;56331;51.992;20.910;2022-10-31T02:06:53;12.18;;;7.92;;
69220;SDS011;56331;51.992;20.910;2022-10-31T02:09:27;11.48;;;7.72;;
69220;SDS011;56331;51.992;20.910;2022-10-31T02:11:57;9.35;;;7.28;;
69220;SDS011;56331;51.992;20.910;2022-10-31T02:14:25;10.60;;;7.90;;
69220;SDS011;56331;51.992;20.910;2022-10-31T02:16:54;11.08;;;8.43;;
69220;SDS011;56331;51.992;20.910;2022-10-31T02:19:30;10.70;;;8.00;;
69220;SDS011;56331;51.992;20.910;2022-10-31T02:33:36;10.78;;;8.13;;
69220;SDS011;56331;51.992;20.910;2022-10-31T02:36:19;9.45;;;7.50;;
69220;SDS011;56331;51.992;20.910;2022-10-31T02:44:18;10.00;;;8.00;;
69220;SDS011;56331;51.992;20.910;2022-10-31T02:52:25;10.38;;;7.65;;
69220;SDS011;56331;51.992;20.910;2022-10-31T02:54:53;11.93;;;8.10;;
69220;SDS011;56331;51.992;20.910;2022-10-31T02:57:24;9.58;;;7.50;;
69220;SDS011;56331;51.992;20.910;2022-10-31T03:00:01;10.53;;;7.15;;
69220;SDS011;56331;51.992;20.910;2022-10-31T03:05:27;11.35;;;7.92;;
69220;SDS011;56331;51.992;20.910;2022-10-31T03:08:06;9.13;;;7.57;;
69220;SDS011;56331;51.992;20.910;2022-10-31T03:10:48;10.03;;;7.30;;
69220;SDS011;56331;51.992;20.910;2022-10-31T03:16:16;10.48;;;7.47;;
69220;SDS011;56331;51.992;20.910;2022-10-31T03:21:40;9.85;;;7.25;;
69220;SDS011;56331;51.992;20.910;2022-10-31T03:24:12;7.72;;;6.72;;
69220;SDS011;56331;51.992;20.910;2022-10-31T03:26:41;9.50;;;7.33;;
69220;SDS011;56331;51.992;20.910;2022-10-31T03:29:11;10.35;;;7.65;;
69220;SDS011;56331;51.992;20.910;2022-10-31T03:31:49;10.30;;;7.37;;
69220;SDS011;56331;51.992;20.910;2022-10-31T03:34:13;9.18;;;6.75;;
69220;SDS011;56331;51.992;20.910;2022-10-31T03:36:41;8.40;;;6.78;;
69220;SDS011;56331;51.992;20.910;2022-10-31T03:39:11;8.45;;;6.90;;
69220;SDS011;56331;51.992;20.910;2022-10-31T03:41:41;8.33;;;7.12;;
69220;SDS011;56331;51.992;20.910;2022-10-31T03:44:14;8.93;;;6.58;;
69220;SDS011;56331;51.992;20.910;2022-10-31T03:49:07;9.28;;;7.03;;
69220;SDS011;56331;51.992;20.910;2022-10-31T03:51:37;8.95;;;6.62;;
69220;SDS011;56331;51.992;20.910;2022-10-31T03:56:57;10.05;;;7.10;;
69220;SDS011;56331;51.992;20.910;2022-10-31T03:59:29;8.65;;;6.75;;
69220;SDS011;56331;51.992;20.910;2022-10-31T04:02:01;7.30;;;6.30;;
69220;SDS011;56331;51.992;20.910;2022-10-31T04:04:30;9.93;;;7.20;;
69220;SDS011;56331;51.992;20.910;2022-10-31T04:06:58;8.63;;;6.03;;
69220;SDS011;56331;51.992;20.910;2022-10-31T04:09:27;7.80;;;6.25;;
69220;SDS011;56331;51.992;20.910;2022-10-31T04:11:56;9.43;;;7.00;;
69220;SDS011;56331;51.992;20.910;2022-10-31T04:14:26;8.43;;;6.47;;
69220;SDS011;56331;51.992;20.910;2022-10-31T04:16:59;8.28;;;6.30;;
69220;SDS011;56331;51.992;20.910;2022-10-31T04:19:23;8.83;;;6.08;;
69220;SDS011;56331;51.992;20.910;2022-10-31T04:21:49;7.10;;;6.20;;
69220;SDS011;56331;51.992;20.910;2022-10-31T04:24:16;9.05;;;6.90;;
69220;SDS011;56331;51.992;20.910;2022-10-31T04:26:42;9.80;;;6.67;;
69220;SDS011;56331;51.992;20.910;2022-10-31T04:29:09;7.95;;;6.58;;
69220;SDS011;56331;51.992;20.910;2022-10-31T04:31:35;8.65;;;6.08;;
69220;SDS011;56331;51.992;20.910;2022-10-31T04:34:01;8.45;;;6.75;;
69220;SDS011;56331;51.992;20.910;2022-10-31T04:36:28;7.28;;;6.12;;
69220;SDS011;56331;51.992;20.910;2022-10-31T04:38:54;8.78;;;6.55;;
69220;SDS011;56331;51.992;20.910;2022-10-31T04:41:21;8.83;;;6.50;;
69220;SDS011;56331;51.992;20.910;2022-10-31T04:43:47;7.70;;;6.08;;
69220;SDS011;56331;51.992;20.910;2022-10-31T04:46:14;7.12;;;6.03;;
69220;SDS011;56331;51.992;20.910;2022-10-31T04:48:40;8.93;;;6.92;;
69220;SDS011;56331;51.992;20.910;2022-10-31T04:51:07;6.83;;;6.10;;
69220;SDS011;56331;51.992;20.910;2022-10-31T04:53:33;8.03;;;5.90;;
69220;SDS011;56331;51.992;20.910;2022-10-31T04:56:00;6.85;;;6.10;;
69220;SDS011;56331;51.992;20.910;2022-10-31T04:58:26;8.48;;;5.95;;
69220;SDS011;56331;51.992;20.910;2022-10-31T05:00:54;7.20;;;5.90;;
69220;SDS011;56331;51.992;20.910;2022-10-31T05:03:21;6.90;;;5.92;;
69220;SDS011;56331;51.992;20.910;2022-10-31T05:05:48;7.33;;;6.30;;
69220;SDS011;56331;51.992;20.910;2022-10-31T05:08:14;7.03;;;5.87;;
69220;SDS011;56331;51.992;20.910;2022-10-31T05:10:41;7.83;;;6.03;;
69220;SDS011;56331;51.992;20.910;2022-10-31T05:13:07;9.18;;;6.55;;
69220;SDS011;56331;51.992;20.910;2022-10-31T05:15:34;7.97;;;6.40;;
69220;SDS011;56331;51.992;20.910;2022-10-31T05:18:00;7.28;;;6.00;;
69220;SDS011;56331;51.992;20.910;2022-10-31T05:20:28;8.50;;;6.45;;
69220;SDS011;56331;51.992;20.910;2022-10-31T05:22:55;7.90;;;5.75;;
69220;SDS011;56331;51.992;20.910;2022-10-31T05:25:24;6.95;;;5.78;;
69220;SDS011;56331;51.992;20.910;2022-10-31T05:27:52;7.50;;;5.90;;
69220;SDS011;56331;51.992;20.910;2022-10-31T05:30:20;7.12;;;5.80;;
69220;SDS011;56331;51.992;20.910;2022-10-31T05:32:49;7.00;;;5.78;;
69220;SDS011;56331;51.992;20.910;2022-10-31T05:35:18;7.33;;;5.80;;
69220;SDS011;56331;51.992;20.910;2022-10-31T05:37:46;7.72;;;5.95;;
69220;SDS011;56331;51.992;20.910;2022-10-31T05:40:14;7.35;;;5.70;;
69220;SDS011;56331;51.992;20.910;2022-10-31T05:42:42;7.08;;;5.60;;
69220;SDS011;56331;51.992;20.910;2022-10-31T05:45:09;6.92;;;5.22;;
69220;SDS011;56331;51.992;20.910;2022-10-31T05:47:37;7.10;;;5.42;;
69220;SDS011;56331;51.992;20.910;2022-10-31T05:50:04;7.08;;;5.85;;
69220;SDS011;56331;51.992;20.910;2022-10-31T05:52:31;6.92;;;5.53;;
69220;SDS011;56331;51.992;20.910;2022-10-31T05:54:58;6.83;;;5.55;;
69220;SDS011;56331;51.992;20.910;2022-10-31T05:57:24;7.92;;;5.95;;
69220;SDS011;56331;51.992;20.910;2022-10-31T05:59:51;7.35;;;6.05;;
69220;SDS011;56331;51.992;20.910;2022-10-31T06:02:19;7.33;;;5.83;;
69220;SDS011;56331;51.992;20.910;2022-10-31T06:04:45;6.58;;;5.33;;
69220;SDS011;56331;51.992;20.910;2022-10-31T06:07:12;6.65;;;5.75;;
69220;SDS011;56331;51.992;20.910;2022-10-31T06:09:39;8.55;;;6.00;;
69220;SDS011;56331;51.992;20.910;2022-10-31T06:12:05;7.25;;;6.08;;
69220;SDS011;56331;51.992;20.910;2022-10-31T06:14:32;6.30;;;5.70;;
69220;SDS011;56331;51.992;20.910;2022-10-31T06:16:58;6.62;;;5.65;;
69220;SDS011;56331;51.992;20.910;2022-10-31T06:19:25;6.67;;;5.60;;
69220;SDS011;56331;51.992;20.910;2022-10-31T06:21:53;7.45;;;5.75;;
69220;SDS011;56331;51.992;20.910;2022-10-31T06:24:19;6.85;;;5.37;;
69220;SDS011;56331;51.992;20.910;2022-10-31T06:26:46;6.08;;;5.20;;
69220;SDS011;56331;51.992;20.910;2022-10-31T06:29:12;6.67;;;5.42;;
69220;SDS011;56331;51.992;20.910;2022-10-31T06:31:38;6.85;;;5.47;;
69220;SDS011;56331;51.992;20.910;2022-10-31T06:34:05;5.78;;;5.05;;
69220;SDS011;56331;51.992;20.910;2022-10-31T06:36:31;6.22;;;5.22;;
69220;SDS011;56331;51.992;20.910;2022-10-31T06:38:57;5.95;;;4.90;;
69220;SDS011;56331;51.992;20.910;2022-10-31T06:41:24;6.40;;;5.58;;
69220;SDS011;56331;51.992;20.910;2022-10-31T06:43:50;6.12;;;5.00;;
69220;SDS011;56331;51.992;20.910;2022-10-31T06:46:16;6.22;;;5.05;;
69220;SDS011;56331;51.992;20.910;2022-10-31T06:48:43;6.70;;;5.35;;
69220;SDS011;56331;51.992;20.910;2022-10-31T06:51:09;6.45;;;4.90;;
69220;SDS011;56331;51.992;20.910;2022-10-31T06:53:36;6.45;;;5.25;;
69220;SDS011;56331;51.992;20.910;2022-10-31T06:56:03;6.30;;;4.92;;
69220;SDS011;56331;51.992;20.910;2022-10-31T06:58:32;6.27;;;4.87;;
69220;SDS011;56331;51.992;20.910;2022-10-31T07:00:59;6.62;;;5.33;;
69220;SDS011;56331;51.992;20.910;2022-10-31T07:03:26;6.25;;;5.22;;
69220;SDS011;56331;51.992;20.910;2022-10-31T07:05:58;5.42;;;4.83;;
69220;SDS011;56331;51.992;20.910;2022-10-31T07:08:22;4.90;;;4.40;;
69220;SDS011;56331;51.992;20.910;2022-10-31T07:10:52;7.20;;;5.40;;
69220;SDS011;56331;51.992;20.910;2022-10-31T07:13:20;5.72;;;4.72;;
69220;SDS011;56331;51.992;20.910;2022-10-31T07:15:51;5.75;;;5.08;;
69220;SDS011;56331;51.992;20.910;2022-10-31T07:18:19;6.70;;;5.35;;
69220;SDS011;56331;51.992;20.910;2022-10-31T07:20:47;6.25;;;5.03;;
69220;SDS011;56331;51.992;20.910;2022-10-31T07:23:13;5.17;;;4.40;;
69220;SDS011;56331;51.992;20.910;2022-10-31T07:25:40;5.55;;;4.78;;
69220;SDS011;56331;51.992;20.910;2022-10-31T07:28:06;5.80;;;4.90;;
69220;SDS011;56331;51.992;20.910;2022-10-31T07:30:33;5.20;;;4.53;;
69220;SDS011;56331;51.992;20.910;2022-10-31T07:33:00;4.85;;;4.33;;
69220;SDS011;56331;51.992;20.910;2022-10-31T07:35:27;5.05;;;4.20;;
69220;SDS011;56331;51.992;20.910;2022-10-31T07:37:54;5.20;;;4.47;;
69220;SDS011;56331;51.992;20.910;2022-10-31T07:40:21;5.53;;;4.67;;
69220;SDS011;56331;51.992;20.910;2022-10-31T07:42:48;4.95;;;4.15;;
69220;SDS011;56331;51.992;20.910;2022-10-31T07:45:17;5.58;;;4.72;;
69220;SDS011;56331;51.992;20.910;2022-10-31T07:47:46;5.03;;;4.53;;
69220;SDS011;56331;51.992;20.910;2022-10-31T07:50:18;5.28;;;4.53;;
69220;SDS011;56331;51.992;20.910;2022-10-31T07:52:57;5.17;;;4.40;;
69220;SDS011;56331;51.992;20.910;2022-10-31T07:55:26;5.10;;;4.60;;
69220;SDS011;56331;51.992;20.910;2022-10-31T07:58:00;4.92;;;4.33;;
69220;SDS011;56331;51.992;20.910;2022-10-31T08:00:28;5.95;;;5.15;;
69220;SDS011;56331;51.992;20.910;2022-10-31T08:03:02;4.80;;;4.20;;
69220;SDS011;56331;51.992;20.910;2022-10-31T08:05:30;5.28;;;4.60;;
69220;SDS011;56331;51.992;20.910;2022-10-31T08:07:57;5.87;;;4.72;;
69220;SDS011;56331;51.992;20.910;2022-10-31T08:10:24;4.70;;;3.98;;
69220;SDS011;56331;51.992;20.910;2022-10-31T08:12:54;5.22;;;4.55;;
69220;SDS011;56331;51.992;20.910;2022-10-31T08:15:25;4.53;;;3.90;;
69220;SDS011;56331;51.992;20.910;2022-10-31T08:17:52;5.55;;;4.50;;
69220;SDS011;56331;51.992;20.910;2022-10-31T08:20:19;4.80;;;4.12;;
69220;SDS011;56331;51.992;20.910;2022-10-31T08:22:56;5.17;;;4.33;;
69220;SDS011;56331;51.992;20.910;2022-10-31T08:25:25;5.95;;;4.70;;
69220;SDS011;56331;51.992;20.910;2022-10-31T08:27:53;4.78;;;4.15;;
69220;SDS011;56331;51.992;20.910;2022-10-31T08:30:21;4.83;;;4.15;;
69220;SDS011;56331;51.992;20.910;2022-10-31T08:33:03;5.12;;;4.40;;
69220;SDS011;56331;51.992;20.910;2022-10-31T08:35:32;6.08;;;4.60;;
69220;SDS011;56331;51.992;20.910;2022-10-31T08:37:59;5.00;;;4.40;;
69220;SDS011;56331;51.992;20.910;2022-10-31T08:40:27;4.35;;;3.87;;
69220;SDS011;56331;51.992;20.910;2022-10-31T08:43:02;4.83;;;3.90;;
69220;SDS011;56331;51.992;20.910;2022-10-31T08:45:30;5.25;;;3.92;;
69220;SDS011;56331;51.992;20.910;2022-10-31T08:48:01;5.17;;;3.98;;
69220;SDS011;56331;51.992;20.910;2022-10-31T08:50:29;5.05;;;4.12;;
69220;SDS011;56331;51.992;20.910;2022-10-31T08:53:08;5.37;;;4.65;;
69220;SDS011;56331;51.992;20.910;2022-10-31T08:55:35;4.58;;;4.08;;
69220;SDS011;56331;51.992;20.910;2022-10-31T08:58:02;4.50;;;4.10;;
69220;SDS011;56331;51.992;20.910;2022-10-31T09:00:31;4.42;;;3.90;;
69220;SDS011;56331;51.992;20.910;2022-10-31T09:03:00;5.58;;;4.22;;
69220;SDS011;56331;51.992;20.910;2022-10-31T09:05:27;5.20;;;4.10;;
69220;SDS011;56331;51.992;20.910;2022-10-31T09:07:59;4.45;;;3.92;;
69220;SDS011;56331;51.992;20.910;2022-10-31T09:10:23;5.85;;;4.60;;
69220;SDS011;56331;51.992;20.910;2022-10-31T09:12:54;5.45;;;4.22;;
69220;SDS011;56331;51.992;20.910;2022-10-31T09:15:21;5.33;;;4.08;;
69220;SDS011;56331;51.992;20.910;2022-10-31T09:17:48;4.28;;;3.87;;
69220;SDS011;56331;51.992;20.910;2022-10-31T09:20:15;4.47;;;3.92;;
69220;SDS011;56331;51.992;20.910;2022-10-31T09:22:41;5.05;;;4.25;;
69220;SDS011;56331;51.992;20.910;2022-10-31T09:25:08;5.20;;;4.00;;
69220;SDS011;56331;51.992;20.910;2022-10-31T09:27:35;4.45;;;4.00;;
69220;SDS011;56331;51.992;20.910;2022-10-31T09:30:01;4.78;;;4.28;;
69220;SDS011;56331;51.992;20.910;2022-10-31T09:32:29;4.65;;;4.25;;
69220;SDS011;56331;51.992;20.910;2022-10-31T09:34:55;4.20;;;3.75;;
69220;SDS011;56331;51.992;20.910;2022-10-31T09:37:21;5.72;;;4.47;;
69220;SDS011;56331;51.992;20.910;2022-10-31T09:39:48;5.17;;;4.15;;
69220;SDS011;56331;51.992;20.910;2022-10-31T09:50:38;5.37;;;4.45;;
69220;SDS011;56331;51.992;20.910;2022-10-31T09:53:02;5.47;;;4.22;;
69220;SDS011;56331;51.992;20.910;2022-10-31T09:55:39;4.55;;;3.70;;
69220;SDS011;56331;51.992;20.910;2022-10-31T09:58:14;6.00;;;4.33;;
69220;SDS011;56331;51.992;20.910;2022-10-31T10:00:43;4.78;;;4.28;;
69220;SDS011;56331;51.992;20.910;2022-10-31T10:03:15;4.45;;;3.90;;
69220;SDS011;56331;51.992;20.910;2022-10-31T10:08:30;5.37;;;4.45;;
69220;SDS011;56331;51.992;20.910;2022-10-31T10:11:22;4.90;;;4.15;;
69220;SDS011;56331;51.992;20.910;2022-10-31T10:14:13;4.55;;;3.90;;
69220;SDS011;56331;51.992;20.910;2022-10-31T10:22:16;5.95;;;4.67;;
69220;SDS011;56331;51.992;20.910;2022-10-31T10:25:01;5.37;;;4.70;;
69220;SDS011;56331;51.992;20.910;2022-10-31T10:30:33;5.20;;;4.00;;
69220;SDS011;56331;51.992;20.910;2022-10-31T10:33:03;5.28;;;4.72;;
69220;SDS011;56331;51.992;20.910;2022-10-31T10:35:34;6.03;;;5.12;;
69220;SDS011;56331;51.992;20.910;2022-10-31T10:38:16;5.85;;;4.55;;
69220;SDS011;56331;51.992;20.910;2022-10-31T10:40:47;5.85;;;4.67;;
69220;SDS011;56331;51.992;20.910;2022-10-31T10:46:04;5.70;;;4.65;;
69220;SDS011;56331;51.992;20.910;2022-10-31T10:48:57;5.78;;;4.37;;
69220;SDS011;56331;51.992;20.910;2022-10-31T10:51:31;6.03;;;4.92;;
69220;SDS011;56331;51.992;20.910;2022-10-31T10:54:23;4.78;;;4.30;;
69220;SDS011;56331;51.992;20.910;2022-10-31T11:00:17;5.83;;;5.08;;
69220;SDS011;56331;51.992;20.910;2022-10-31T11:02:54;5.87;;;4.30;;
69220;SDS011;56331;51.992;20.910;2022-10-31T11:08:04;5.65;;;4.95;;
69220;SDS011;56331;51.992;20.910;2022-10-31T11:10:31;6.35;;;5.15;;
69220;SDS011;56331;51.992;20.910;2022-10-31T11:16:04;5.35;;;4.50;;
69220;SDS011;56331;51.992;20.910;2022-10-31T11:18:34;6.78;;;5.33;;
69220;SDS011;56331;51.992;20.910;2022-10-31T11:23:30;6.45;;;5.12;;
69220;SDS011;56331;51.992;20.910;2022-10-31T11:26:05;5.92;;;4.70;;
69220;SDS011;56331;51.992;20.910;2022-10-31T11:28:32;6.95;;;5.05;;
69220;SDS011;56331;51.992;20.910;2022-10-31T11:31:07;5.65;;;4.87;;
69220;SDS011;56331;51.992;20.910;2022-10-31T11:33:36;6.25;;;4.95;;
69220;SDS011;56331;51.992;20.910;2022-10-31T11:36:16;6.12;;;5.05;;
69220;SDS011;56331;51.992;20.910;2022-10-31T11:38:53;7.40;;;5.45;;
69220;SDS011;56331;51.992;20.910;2022-10-31T11:41:25;5.67;;;5.08;;
69220;SDS011;56331;51.992;20.910;2022-10-31T11:43:54;5.20;;;4.70;;
69220;SDS011;56331;51.992;20.910;2022-10-31T11:48:53;6.28;;;5.03;;
69220;SDS011;56331;51.992;20.910;2022-10-31T11:51:25;6.00;;;5.20;;
69220;SDS011;56331;51.992;20.910;2022-10-31T11:56:36;5.83;;;5.00;;
69220;SDS011;56331;51.992;20.910;2022-10-31T11:59:12;6.03;;;4.65;;
69220;SDS011;56331;51.992;20.910;2022-10-31T12:01:48;8.07;;;5.60;;
69220;SDS011;56331;51.992;20.910;2022-10-31T12:04:16;6.83;;;5.65;;
69220;SDS011;56331;51.992;20.910;2022-10-31T12:06:44;7.58;;;5.30;;
69220;SDS011;56331;51.992;20.910;2022-10-31T12:17:26;6.22;;;5.08;;
69220;SDS011;56331;51.992;20.910;2022-10-31T12:31:03;7.55;;;5.58;;
69220;SDS011;56331;51.992;20.910;2022-10-31T12:33:34;6.47;;;5.58;;
69220;SDS011;56331;51.992;20.910;2022-10-31T12:42:17;5.60;;;5.00;;
69220;SDS011;56331;51.992;20.910;2022-10-31T12:55:09;7.33;;;5.83;;
69220;SDS011;56331;51.992;20.910;2022-10-31T12:57:54;7.42;;;5.75;;
69220;SDS011;56331;51.992;20.910;2022-10-31T13:00:23;7.58;;;6.12;;
69220;SDS011;56331;51.992;20.910;2022-10-31T13:02:59;7.67;;;5.92;;
69220;SDS011;56331;51.992;20.910;2022-10-31T13:05:32;7.47;;;5.75;;
69220;SDS011;56331;51.992;20.910;2022-10-31T13:08:04;6.55;;;5.15;;
69220;SDS011;56331;51.992;20.910;2022-10-31T13:10:36;8.10;;;6.00;;
69220;SDS011;56331;51.992;20.910;2022-10-31T13:13:24;7.80;;;5.72;;
69220;SDS011;56331;51.992;20.910;2022-10-31T13:16:01;9.50;;;6.73;;
69220;SDS011;56331;51.992;20.910;2022-10-31T13:18:55;8.08;;;6.37;;
69220;SDS011;56331;51.992;20.910;2022-10-31T13:21:30;7.20;;;5.87;;
69220;SDS011;56331;51.992;20.910;2022-10-31T13:24:08;8.80;;;6.20;;
69220;SDS011;56331;51.992;20.910;2022-10-31T13:26:43;7.85;;;5.70;;
69220;SDS011;56331;51.992;20.910;2022-10-31T13:29:15;7.15;;;5.72;;
69220;SDS011;56331;51.992;20.910;2022-10-31T13:31:50;8.30;;;6.33;;
69220;SDS011;56331;51.992;20.910;2022-10-31T13:34:27;7.05;;;5.83;;
69220;SDS011;56331;51.992;20.910;2022-10-31T13:37:04;7.67;;;6.40;;
69220;SDS011;56331;51.992;20.910;2022-10-31T13:45:24;9.83;;;6.45;;
69220;SDS011;56331;51.992;20.910;2022-10-31T13:50:42;8.90;;;6.30;;
69220;SDS011;56331;51.992;20.910;2022-10-31T13:53:18;7.97;;;6.17;;
69220;SDS011;56331;51.992;20.910;2022-10-31T13:55:48;8.93;;;6.37;;
69220;SDS011;56331;51.992;20.910;2022-10-31T13:58:20;8.20;;;6.40;;
69220;SDS011;56331;51.992;20.910;2022-10-31T14:03:44;8.25;;;6.33;;
69220;SDS011;56331;51.992;20.910;2022-10-31T14:08:41;8.08;;;6.47;;
69220;SDS011;56331;51.992;20.910;2022-10-31T14:11:22;7.03;;;5.92;;
69220;SDS011;56331;51.992;20.910;2022-10-31T14:16:24;8.18;;;6.53;;
69220;SDS011;56331;51.992;20.910;2022-10-31T14:19:02;8.60;;;6.62;;
69220;SDS011;56331;51.992;20.910;2022-10-31T14:21:38;8.68;;;6.60;;
69220;SDS011;56331;51.992;20.910;2022-10-31T14:24:30;9.08;;;6.75;;
69220;SDS011;56331;51.992;20.910;2022-10-31T14:29:26;9.35;;;6.67;;
69220;SDS011;56331;51.992;20.910;2022-10-31T14:32:06;9.80;;;7.47;;
69220;SDS011;56331;51.992;20.910;2022-10-31T14:40:01;9.93;;;7.15;;
69220;SDS011;56331;51.992;20.910;2022-10-31T14:42:51;9.65;;;7.45;;
69220;SDS011;56331;51.992;20.910;2022-10-31T14:53:08;9.88;;;7.97;;
69220;SDS011;56331;51.992;20.910;2022-10-31T14:55:40;8.95;;;7.35;;
69220;SDS011;56331;51.992;20.910;2022-10-31T14:58:13;9.30;;;6.97;;
69220;SDS011;56331;51.992;20.910;2022-10-31T15:03:11;10.28;;;8.00;;
69220;SDS011;56331;51.992;20.910;2022-10-31T15:05:51;8.93;;;7.37;;
69220;SDS011;56331;51.992;20.910;2022-10-31T15:08:53;9.15;;;7.12;;
69220;SDS011;56331;51.992;20.910;2022-10-31T15:11:02;10.45;;;8.08;;
69220;SDS011;56331;51.992;20.910;2022-10-31T15:13:30;9.45;;;7.12;;
69220;SDS011;56331;51.992;20.910;2022-10-31T15:15:57;9.05;;;7.15;;
69220;SDS011;56331;51.992;20.910;2022-10-31T15:18:24;10.05;;;7.83;;
69220;SDS011;56331;51.992;20.910;2022-10-31T15:20:53;10.43;;;7.75;;
69220;SDS011;56331;51.992;20.910;2022-10-31T15:23:23;10.25;;;7.97;;
69220;SDS011;56331;51.992;20.910;2022-10-31T15:25:57;9.70;;;7.45;;
69220;SDS011;56331;51.992;20.910;2022-10-31T15:28:29;9.38;;;7.42;;
69220;SDS011;56331;51.992;20.910;2022-10-31T15:30:57;10.05;;;7.95;;
69220;SDS011;56331;51.992;20.910;2022-10-31T15:33:26;9.60;;;7.70;;
69220;SDS011;56331;51.992;20.910;2022-10-31T15:35:55;10.55;;;7.90;;
69220;SDS011;56331;51.992;20.910;2022-10-31T15:38:26;9.55;;;7.40;;
69220;SDS011;56331;51.992;20.910;2022-10-31T15:41:03;10.35;;;7.42;;
69220;SDS011;56331;51.992;20.910;2022-10-31T15:43:36;10.28;;;8.03;;
69220;SDS011;56331;51.992;20.910;2022-10-31T15:48:29;9.63;;;7.30;;
69220;SDS011;56331;51.992;20.910;2022-10-31T15:51:00;9.85;;;7.45;;
69220;SDS011;56331;51.992;20.910;2022-10-31T15:56:06;10.15;;;7.53;;
69220;SDS011;56331;51.992;20.910;2022-10-31T15:58:46;9.65;;;7.92;;
69220;SDS011;56331;51.992;20.910;2022-10-31T16:01:28;9.20;;;7.37;;
69220;SDS011;56331;51.992;20.910;2022-10-31T16:04:04;8.73;;;7.12;;
69220;SDS011;56331;51.992;20.910;2022-10-31T16:06:32;8.95;;;7.17;;
69220;SDS011;56331;51.992;20.910;2022-10-31T16:09:00;8.33;;;6.95;;
69220;SDS011;56331;51.992;20.910;2022-10-31T16:11:32;9.48;;;7.37;;
69220;SDS011;56331;51.992;20.910;2022-10-31T16:14:03;9.25;;;7.70;;
69220;SDS011;56331;51.992;20.910;2022-10-31T16:16:45;9.70;;;7.65;;
69220;SDS011;56331;51.992;20.910;2022-10-31T16:21:43;9.90;;;7.80;;
69220;SDS011;56331;51.992;20.910;2022-10-31T16:26:52;9.03;;;7.40;;
69220;SDS011;56331;51.992;20.910;2022-10-31T16:29:26;9.40;;;7.47;;
69220;SDS011;56331;51.992;20.910;2022-10-31T16:31:54;9.30;;;7.53;;
69220;SDS011;56331;51.992;20.910;2022-10-31T16:34:21;8.28;;;7.03;;
69220;SDS011;56331;51.992;20.910;2022-10-31T16:36:48;7.87;;;6.80;;
69220;SDS011;56331;51.992;20.910;2022-10-31T16:39:15;8.10;;;6.80;;
69220;SDS011;56331;51.992;20.910;2022-10-31T16:41:44;8.83;;;7.30;;
69220;SDS011;56331;51.992;20.910;2022-10-31T16:44:19;9.48;;;7.45;;
69220;SDS011;56331;51.992;20.910;2022-10-31T16:49:42;8.18;;;6.75;;
69220;SDS011;56331;51.992;20.910;2022-10-31T16:52:11;8.35;;;6.70;;
69220;SDS011;56331;51.992;20.910;2022-10-31T16:54:38;9.88;;;7.25;;
69220;SDS011;56331;51.992;20.910;2022-10-31T16:57:05;9.25;;;7.15;;
69220;SDS011;56331;51.992;20.910;2022-10-31T16:59:32;8.98;;;7.22;;
69220;SDS011;56331;51.992;20.910;2022-10-31T17:01:59;10.05;;;7.85;;
69220;SDS011;56331;51.992;20.910;2022-10-31T17:04:28;8.58;;;7.10;;
69220;SDS011;56331;51.992;20.910;2022-10-31T17:06:54;9.08;;;7.10;;
69220;SDS011;56331;51.992;20.910;2022-10-31T17:09:21;9.73;;;6.90;;
69220;SDS011;56331;51.992;20.910;2022-10-31T17:11:48;8.80;;;7.20;;
69220;SDS011;56331;51.992;20.910;2022-10-31T17:14:17;9.85;;;7.62;;
69220;SDS011;56331;51.992;20.910;2022-10-31T17:16:44;8.48;;;6.92;;
69220;SDS011;56331;51.992;20.910;2022-10-31T17:19:11;9.70;;;7.25;;
69220;SDS011;56331;51.992;20.910;2022-10-31T17:21:38;9.48;;;6.72;;
69220;SDS011;56331;51.992;20.910;2022-10-31T17:24:05;9.80;;;7.72;;
69220;SDS011;56331;51.992;20.910;2022-10-31T17:26:33;9.83;;;7.50;;
69220;SDS011;56331;51.992;20.910;2022-10-31T17:29:00;8.65;;;7.50;;
69220;SDS011;56331;51.992;20.910;2022-10-31T17:31:29;8.75;;;6.85;;
69220;SDS011;56331;51.992;20.910;2022-10-31T17:33:58;8.45;;;7.22;;
69220;SDS011;56331;51.992;20.910;2022-10-31T17:36:25;10.00;;;7.22;;